Weather at Mole Creek Airport

Public forecast

Using degrees Celsius for public forecast. Weather courtesy of forecast.io.

Closest aviation weather report (METAR) to Mole Creek Airport

Closest report is Launceston Airport, 39.6 nm (73.3 km) E. Retrieved 2021/09/17 06:30 UTC (6 minutes ago):

YMLT 170630Z AUTO 01007KT 9999 // OVC100 13/05 Q1011 RF000/0000

Closest aviation forecast (TAF) to Mole Creek Airport

Closest forecast is Launceston Airport, 39.6 nm (73.3 km) E. Retrieved 2021/09/17 06:36 UTC (0 seconds ago):

TAF YMLT 170523Z 1706/1806 36013KT 9999 -SHRA SCT035 BECMG 1715/1716 34014KT 9999 -SHRA BKN015 FM172200 31015G25KT 9999 -SHRA FEW025 SCT045 INTER 1713/1715 5000 SHRA BKN015 TEMPO 1715/1718 4000 SHRA BKN008 INTER 1718/1723 4000 SHRA BKN012